sensor_id;sensor_type;location;lat;lon;timestamp;pressure;altitude;pressure_sealevel;temperature;humidity
78064;BME280;67429;51.596;-3.264;2023-02-18T00:02:05;100168.35;;;5.61;74.31
78064;BME280;67429;51.596;-3.264;2023-02-18T00:04:31;100166.99;;;5.95;74.42
78064;BME280;67429;51.596;-3.264;2023-02-18T00:06:56;100159.60;;;6.04;73.41
78064;BME280;67429;51.596;-3.264;2023-02-18T00:09:21;100162.26;;;5.82;73.85
78064;BME280;67429;51.596;-3.264;2023-02-18T00:11:47;100160.15;;;6.21;73.43
78064;BME280;67429;51.596;-3.264;2023-02-18T00:14:14;100161.82;;;5.90;73.54
78064;BME280;67429;51.596;-3.264;2023-02-18T00:16:39;100162.54;;;5.94;73.12
78064;BME280;67429;51.596;-3.264;2023-02-18T00:19:05;100159.53;;;5.96;72.91
78064;BME280;67429;51.596;-3.264;2023-02-18T00:21:29;100161.35;;;6.13;73.44
78064;BME280;67429;51.596;-3.264;2023-02-18T00:23:54;100162.04;;;5.58;74.43
78064;BME280;67429;51.596;-3.264;2023-02-18T00:26:20;100156.71;;;5.89;73.10
78064;BME280;67429;51.596;-3.264;2023-02-18T00:28:46;100161.63;;;6.11;72.84
78064;BME280;67429;51.596;-3.264;2023-02-18T00:31:14;100150.21;;;5.83;72.36
78064;BME280;67429;51.596;-3.264;2023-02-18T00:33:37;100155.86;;;5.97;72.23
78064;BME280;67429;51.596;-3.264;2023-02-18T00:36:03;100158.14;;;5.96;72.10
78064;BME280;67429;51.596;-3.264;2023-02-18T00:38:27;100163.00;;;5.77;72.23
78064;BME280;67429;51.596;-3.264;2023-02-18T00:40:54;100149.37;;;5.76;72.25
78064;BME280;67429;51.596;-3.264;2023-02-18T00:43:19;100150.81;;;5.51;73.23
78064;BME280;67429;51.596;-3.264;2023-02-18T00:45:44;100147.94;;;5.71;72.45
78064;BME280;67429;51.596;-3.264;2023-02-18T00:48:10;100145.32;;;5.98;71.44
78064;BME280;67429;51.596;-3.264;2023-02-18T00:50:36;100143.08;;;5.87;72.08
78064;BME280;67429;51.596;-3.264;2023-02-18T00:53:01;100137.50;;;6.08;70.42
78064;BME280;67429;51.596;-3.264;2023-02-18T00:55:26;100136.89;;;6.03;71.21
78064;BME280;67429;51.596;-3.264;2023-02-18T00:57:52;100138.69;;;5.80;71.84
78064;BME280;67429;51.596;-3.264;2023-02-18T01:00:18;100135.84;;;5.55;72.80
78064;BME280;67429;51.596;-3.264;2023-02-18T01:02:43;100133.90;;;5.57;72.76
78064;BME280;67429;51.596;-3.264;2023-02-18T01:05:13;100139.49;;;5.34;73.33
78064;BME280;67429;51.596;-3.264;2023-02-18T01:07:34;100139.99;;;5.54;73.09
78064;BME280;67429;51.596;-3.264;2023-02-18T01:10:00;100136.03;;;5.40;73.07
78064;BME280;67429;51.596;-3.264;2023-02-18T01:12:25;100123.14;;;5.41;73.89
78064;BME280;67429;51.596;-3.264;2023-02-18T01:14:52;100136.56;;;5.64;72.75
78064;BME280;67429;51.596;-3.264;2023-02-18T01:17:16;100129.90;;;5.61;73.15
78064;BME280;67429;51.596;-3.264;2023-02-18T01:19:41;100131.22;;;5.99;71.41
78064;BME280;67429;51.596;-3.264;2023-02-18T01:22:07;100127.39;;;5.92;72.15
78064;BME280;67429;51.596;-3.264;2023-02-18T01:24:33;100121.46;;;5.83;72.07
78064;BME280;67429;51.596;-3.264;2023-02-18T01:26:58;100122.39;;;6.05;70.76
78064;BME280;67429;51.596;-3.264;2023-02-18T01:29:24;100119.61;;;6.01;71.84
78064;BME280;67429;51.596;-3.264;2023-02-18T01:31:50;100111.85;;;5.64;72.14
78064;BME280;67429;51.596;-3.264;2023-02-18T01:34:15;100120.20;;;5.66;72.19
78064;BME280;67429;51.596;-3.264;2023-02-18T01:36:41;100117.04;;;5.85;71.63
78064;BME280;67429;51.596;-3.264;2023-02-18T01:39:06;100118.47;;;5.94;70.67
78064;BME280;67429;51.596;-3.264;2023-02-18T01:41:32;100112.51;;;6.14;69.66
78064;BME280;67429;51.596;-3.264;2023-02-18T01:44:09;100110.51;;;5.83;71.60
78064;BME280;67429;51.596;-3.264;2023-02-18T01:46:23;100121.96;;;6.29;70.73
78064;BME280;67429;51.596;-3.264;2023-02-18T01:48:52;100116.46;;;5.68;71.89
78064;BME280;67429;51.596;-3.264;2023-02-18T01:51:17;100130.34;;;6.04;72.25
78064;BME280;67429;51.596;-3.264;2023-02-18T01:53:47;100134.08;;;5.70;73.92
78064;BME280;67429;51.596;-3.264;2023-02-18T01:56:11;100130.07;;;5.89;72.64
78064;BME280;67429;51.596;-3.264;2023-02-18T01:58:32;100126.37;;;6.12;72.05
78064;BME280;67429;51.596;-3.264;2023-02-18T02:00:57;100126.06;;;6.11;70.89
78064;BME280;67429;51.596;-3.264;2023-02-18T02:03:23;100124.80;;;6.22;72.04
78064;BME280;67429;51.596;-3.264;2023-02-18T02:05:48;100116.65;;;5.82;72.61
78064;BME280;67429;51.596;-3.264;2023-02-18T02:08:13;100119.73;;;6.06;72.68
78064;BME280;67429;51.596;-3.264;2023-02-18T02:10:50;100128.02;;;5.99;71.53
78064;BME280;67429;51.596;-3.264;2023-02-18T02:13:09;100134.95;;;6.06;71.45
78064;BME280;67429;51.596;-3.264;2023-02-18T02:15:35;100135.70;;;6.06;73.20
78064;BME280;67429;51.596;-3.264;2023-02-18T02:18:06;100143.82;;;6.13;72.38
78064;BME280;67429;51.596;-3.264;2023-02-18T02:25:19;100140.86;;;5.92;74.96
78064;BME280;67429;51.596;-3.264;2023-02-18T02:27:53;100144.89;;;5.79;74.77
78064;BME280;67429;51.596;-3.264;2023-02-18T02:32:45;100136.56;;;6.35;72.84
78064;BME280;67429;51.596;-3.264;2023-02-18T02:34:57;100135.90;;;6.17;73.35
78064;BME280;67429;51.596;-3.264;2023-02-18T02:37:27;100139.51;;;5.79;74.28
78064;BME280;67429;51.596;-3.264;2023-02-18T02:39:55;100138.79;;;6.05;74.05
78064;BME280;67429;51.596;-3.264;2023-02-18T02:42:29;100130.41;;;6.27;74.53
78064;BME280;67429;51.596;-3.264;2023-02-18T02:44:41;100127.17;;;6.29;74.96
78064;BME280;67429;51.596;-3.264;2023-02-18T02:47:08;100126.68;;;6.10;74.09
78064;BME280;67429;51.596;-3.264;2023-02-18T02:49:36;100122.37;;;6.55;73.22
78064;BME280;67429;51.596;-3.264;2023-02-18T02:51:59;100122.33;;;7.12;71.59
78064;BME280;67429;51.596;-3.264;2023-02-18T02:54:21;100108.57;;;6.60;73.03
78064;BME280;67429;51.596;-3.264;2023-02-18T02:56:44;100115.53;;;6.64;73.60
78064;BME280;67429;51.596;-3.264;2023-02-18T02:59:13;100107.54;;;6.06;74.40
78064;BME280;67429;51.596;-3.264;2023-02-18T03:01:44;100094.13;;;5.84;75.79
78064;BME280;67429;51.596;-3.264;2023-02-18T03:04:13;100097.30;;;5.55;77.36
78064;BME280;67429;51.596;-3.264;2023-02-18T03:06:40;100095.17;;;5.41;77.27
78064;BME280;67429;51.596;-3.264;2023-02-18T03:08:57;100090.33;;;5.96;75.23
78064;BME280;67429;51.596;-3.264;2023-02-18T03:11:18;100086.41;;;5.62;76.80
78064;BME280;67429;51.596;-3.264;2023-02-18T03:13:52;100092.45;;;5.71;77.24
78064;BME280;67429;51.596;-3.264;2023-02-18T03:16:14;100087.89;;;6.17;75.04
78064;BME280;67429;51.596;-3.264;2023-02-18T03:18:39;100090.05;;;6.36;74.02
78064;BME280;67429;51.596;-3.264;2023-02-18T03:21:03;100082.73;;;6.09;76.03
78064;BME280;67429;51.596;-3.264;2023-02-18T03:23:31;100082.29;;;5.64;77.73
78064;BME280;67429;51.596;-3.264;2023-02-18T03:25:53;100085.87;;;5.72;76.93
78064;BME280;67429;51.596;-3.264;2023-02-18T03:28:18;100088.53;;;6.15;76.11
78064;BME280;67429;51.596;-3.264;2023-02-18T03:30:45;100080.84;;;5.35;78.26
78064;BME280;67429;51.596;-3.264;2023-02-18T03:33:09;100080.14;;;6.04;76.42
78064;BME280;67429;51.596;-3.264;2023-02-18T03:35:34;100074.64;;;5.83;76.94
78064;BME280;67429;51.596;-3.264;2023-02-18T03:38:02;100072.13;;;6.32;75.26
78064;BME280;67429;51.596;-3.264;2023-02-18T03:40:23;100068.44;;;5.96;76.43
78064;BME280;67429;51.596;-3.264;2023-02-18T03:42:49;100066.86;;;6.29;75.68
78064;BME280;67429;51.596;-3.264;2023-02-18T03:45:16;100064.84;;;5.95;76.58
78064;BME280;67429;51.596;-3.264;2023-02-18T03:47:40;100054.27;;;5.80;76.91
78064;BME280;67429;51.596;-3.264;2023-02-18T03:50:07;100052.35;;;6.10;75.70
78064;BME280;67429;51.596;-3.264;2023-02-18T03:52:31;100056.02;;;6.23;74.58
78064;BME280;67429;51.596;-3.264;2023-02-18T03:54:57;100056.94;;;6.08;75.54
78064;BME280;67429;51.596;-3.264;2023-02-18T03:57:23;100047.32;;;6.00;77.11
78064;BME280;67429;51.596;-3.264;2023-02-18T03:59:48;100044.71;;;5.61;77.27
78064;BME280;67429;51.596;-3.264;2023-02-18T04:02:14;100047.95;;;6.38;75.75
78064;BME280;67429;51.596;-3.264;2023-02-18T04:04:40;100040.64;;;6.10;75.65
78064;BME280;67429;51.596;-3.264;2023-02-18T04:07:05;100037.40;;;6.03;76.07
78064;BME280;67429;51.596;-3.264;2023-02-18T04:09:31;100035.33;;;5.73;76.32
78064;BME280;67429;51.596;-3.264;2023-02-18T04:11:56;100036.44;;;6.17;74.26
78064;BME280;67429;51.596;-3.264;2023-02-18T04:14:22;100046.45;;;6.62;73.27
78064;BME280;67429;51.596;-3.264;2023-02-18T04:16:48;100041.82;;;5.70;76.61
78064;BME280;67429;51.596;-3.264;2023-02-18T04:19:14;100029.68;;;6.01;76.50
78064;BME280;67429;51.596;-3.264;2023-02-18T04:21:39;100032.19;;;5.71;77.66
78064;BME280;67429;51.596;-3.264;2023-02-18T04:24:05;100026.26;;;5.61;77.75
78064;BME280;67429;51.596;-3.264;2023-02-18T04:26:30;100030.88;;;5.81;76.73
78064;BME280;67429;51.596;-3.264;2023-02-18T04:28:56;100026.41;;;5.69;77.31
78064;BME280;67429;51.596;-3.264;2023-02-18T04:31:22;100026.09;;;5.77;76.80
78064;BME280;67429;51.596;-3.264;2023-02-18T04:33:47;100022.23;;;5.89;77.21
78064;BME280;67429;51.596;-3.264;2023-02-18T04:36:13;100031.69;;;5.77;77.64
78064;BME280;67429;51.596;-3.264;2023-02-18T04:38:39;100023.56;;;5.59;77.82
78064;BME280;67429;51.596;-3.264;2023-02-18T04:41:04;100017.45;;;5.78;77.30
78064;BME280;67429;51.596;-3.264;2023-02-18T04:43:30;100010.35;;;5.83;76.93
78064;BME280;67429;51.596;-3.264;2023-02-18T04:45:55;100004.86;;;5.56;78.72
78064;BME280;67429;51.596;-3.264;2023-02-18T04:48:21;100000.17;;;5.77;76.46
78064;BME280;67429;51.596;-3.264;2023-02-18T04:50:47;99999.85;;;5.55;78.78
78064;BME280;67429;51.596;-3.264;2023-02-18T04:53:12;100002.95;;;5.74;77.86
78064;BME280;67429;51.596;-3.264;2023-02-18T04:55:38;100009.95;;;5.55;76.86
78064;BME280;67429;51.596;-3.264;2023-02-18T04:58:04;100005.46;;;5.75;75.95
78064;BME280;67429;51.596;-3.264;2023-02-18T05:00:29;100007.64;;;5.87;77.10
78064;BME280;67429;51.596;-3.264;2023-02-18T05:02:55;100004.31;;;5.82;77.18
78064;BME280;67429;51.596;-3.264;2023-02-18T05:05:21;100012.24;;;6.22;76.13
78064;BME280;67429;51.596;-3.264;2023-02-18T05:07:46;100006.91;;;6.27;75.55
78064;BME280;67429;51.596;-3.264;2023-02-18T05:10:15;100011.90;;;6.24;76.05
78064;BME280;67429;51.596;-3.264;2023-02-18T05:12:37;100010.31;;;6.48;75.09
78064;BME280;67429;51.596;-3.264;2023-02-18T05:15:04;100001.11;;;6.07;76.65
78064;BME280;67429;51.596;-3.264;2023-02-18T05:17:29;99999.82;;;6.12;76.16
78064;BME280;67429;51.596;-3.264;2023-02-18T05:19:54;100006.89;;;5.59;76.50
78064;BME280;67429;51.596;-3.264;2023-02-18T05:22:20;100004.22;;;5.74;78.06
78064;BME280;67429;51.596;-3.264;2023-02-18T05:24:46;99994.35;;;5.74;77.96
78064;BME280;67429;51.596;-3.264;2023-02-18T05:27:11;99999.93;;;5.85;78.44
78064;BME280;67429;51.596;-3.264;2023-02-18T05:29:37;99998.40;;;5.57;79.38
78064;BME280;67429;51.596;-3.264;2023-02-18T05:32:03;100001.30;;;5.52;79.86
78064;BME280;67429;51.596;-3.264;2023-02-18T05:34:28;99997.65;;;5.58;78.76
78064;BME280;67429;51.596;-3.264;2023-02-18T05:36:54;100002.93;;;5.99;78.01
78064;BME280;67429;51.596;-3.264;2023-02-18T05:39:19;100001.72;;;5.83;79.14
78064;BME280;67429;51.596;-3.264;2023-02-18T05:41:45;99999.32;;;6.14;77.47
78064;BME280;67429;51.596;-3.264;2023-02-18T05:44:11;99992.54;;;5.99;77.86
78064;BME280;67429;51.596;-3.264;2023-02-18T05:46:36;99990.65;;;5.73;78.50
78064;BME280;67429;51.596;-3.264;2023-02-18T05:49:02;99997.13;;;5.74;78.47
78064;BME280;67429;51.596;-3.264;2023-02-18T05:51:28;99989.23;;;5.98;77.79
78064;BME280;67429;51.596;-3.264;2023-02-18T05:53:54;99996.19;;;6.36;76.19
78064;BME280;67429;51.596;-3.264;2023-02-18T05:56:19;99996.10;;;5.95;76.78
78064;BME280;67429;51.596;-3.264;2023-02-18T05:58:45;99987.84;;;6.01;77.55
78064;BME280;67429;51.596;-3.264;2023-02-18T06:01:10;99983.32;;;6.33;75.59
78064;BME280;67429;51.596;-3.264;2023-02-18T06:03:36;99991.07;;;6.44;76.22
78064;BME280;67429;51.596;-3.264;2023-02-18T06:06:01;99989.07;;;6.11;77.94
78064;BME280;67429;51.596;-3.264;2023-02-18T06:08:27;99983.49;;;6.17;77.37
78064;BME280;67429;51.596;-3.264;2023-02-18T06:10:53;99981.45;;;6.20;76.26
78064;BME280;67429;51.596;-3.264;2023-02-18T06:13:18;99978.43;;;6.19;77.00
78064;BME280;67429;51.596;-3.264;2023-02-18T06:15:44;99974.88;;;5.91;78.06
78064;BME280;67429;51.596;-3.264;2023-02-18T06:18:09;99974.24;;;5.91;76.66
78064;BME280;67429;51.596;-3.264;2023-02-18T06:20:35;99978.45;;;6.61;76.38
78064;BME280;67429;51.596;-3.264;2023-02-18T06:23:01;99968.32;;;6.94;73.66
78064;BME280;67429;51.596;-3.264;2023-02-18T06:25:26;99969.16;;;7.04;73.76
78064;BME280;67429;51.596;-3.264;2023-02-18T06:27:52;99962.42;;;7.09;73.42
78064;BME280;67429;51.596;-3.264;2023-02-18T06:30:18;99961.00;;;6.74;74.66
78064;BME280;67429;51.596;-3.264;2023-02-18T06:32:43;99951.23;;;6.64;74.87
78064;BME280;67429;51.596;-3.264;2023-02-18T06:35:09;99951.53;;;6.27;75.75
78064;BME280;67429;51.596;-3.264;2023-02-18T06:37:34;99954.39;;;6.47;76.06
78064;BME280;67429;51.596;-3.264;2023-02-18T06:40:00;99956.68;;;6.35;75.98
78064;BME280;67429;51.596;-3.264;2023-02-18T06:42:26;99955.96;;;6.47;75.46
78064;BME280;67429;51.596;-3.264;2023-02-18T06:44:51;99957.39;;;6.54;74.79
78064;BME280;67429;51.596;-3.264;2023-02-18T06:47:17;99953.76;;;6.79;74.36
78064;BME280;67429;51.596;-3.264;2023-02-18T06:49:43;99961.67;;;6.54;75.08
78064;BME280;67429;51.596;-3.264;2023-02-18T06:52:08;99970.33;;;6.82;74.31
78064;BME280;67429;51.596;-3.264;2023-02-18T06:54:34;99963.00;;;7.11;74.01
78064;BME280;67429;51.596;-3.264;2023-02-18T06:57:00;99975.73;;;6.11;76.36
78064;BME280;67429;51.596;-3.264;2023-02-18T06:59:25;99970.90;;;6.32;76.06
78064;BME280;67429;51.596;-3.264;2023-02-18T07:01:51;99981.60;;;6.81;74.96
78064;BME280;67429;51.596;-3.264;2023-02-18T07:04:17;99978.00;;;6.11;76.85
78064;BME280;67429;51.596;-3.264;2023-02-18T07:06:42;99985.18;;;6.39;76.99
78064;BME280;67429;51.596;-3.264;2023-02-18T07:09:08;99981.33;;;6.96;74.86
78064;BME280;67429;51.596;-3.264;2023-02-18T07:11:33;99980.10;;;6.68;75.36
78064;BME280;67429;51.596;-3.264;2023-02-18T07:13:59;99980.93;;;6.94;74.62
78064;BME280;67429;51.596;-3.264;2023-02-18T07:16:25;99985.61;;;6.64;75.39
78064;BME280;67429;51.596;-3.264;2023-02-18T07:18:50;99978.16;;;6.44;76.65
78064;BME280;67429;51.596;-3.264;2023-02-18T07:21:16;99974.96;;;6.57;76.62
78064;BME280;67429;51.596;-3.264;2023-02-18T07:23:41;99977.03;;;6.34;76.50
78064;BME280;67429;51.596;-3.264;2023-02-18T07:26:09;99977.33;;;6.02;77.24
78064;BME280;67429;51.596;-3.264;2023-02-18T07:28:33;99972.13;;;6.60;76.67
78064;BME280;67429;51.596;-3.264;2023-02-18T07:30:58;99972.80;;;7.03;75.17
78064;BME280;67429;51.596;-3.264;2023-02-18T07:33:24;99977.68;;;6.78;75.24
78064;BME280;67429;51.596;-3.264;2023-02-18T07:35:53;99986.89;;;6.74;75.67
78064;BME280;67429;51.596;-3.264;2023-02-18T07:38:15;99993.15;;;6.65;76.68
78064;BME280;67429;51.596;-3.264;2023-02-18T07:40:40;99994.37;;;6.94;75.39
78064;BME280;67429;51.596;-3.264;2023-02-18T07:43:06;99996.65;;;6.80;74.47
78064;BME280;67429;51.596;-3.264;2023-02-18T07:45:32;99997.58;;;6.78;75.24
78064;BME280;67429;51.596;-3.264;2023-02-18T07:47:57;100004.63;;;6.92;75.02
78064;BME280;67429;51.596;-3.264;2023-02-18T07:50:23;99997.79;;;7.47;73.51
78064;BME280;67429;51.596;-3.264;2023-02-18T07:52:48;100000.71;;;7.06;75.03
78064;BME280;67429;51.596;-3.264;2023-02-18T07:55:14;99998.29;;;7.35;73.38
78064;BME280;67429;51.596;-3.264;2023-02-18T07:57:39;100006.12;;;7.90;71.83
78064;BME280;67429;51.596;-3.264;2023-02-18T08:00:07;100008.05;;;8.14;70.23
78064;BME280;67429;51.596;-3.264;2023-02-18T08:02:31;100010.91;;;7.51;73.09
78064;BME280;67429;51.596;-3.264;2023-02-18T08:04:56;100014.80;;;7.60;72.25
78064;BME280;67429;51.596;-3.264;2023-02-18T08:07:22;100016.46;;;7.30;72.86
78064;BME280;67429;51.596;-3.264;2023-02-18T08:09:48;100032.12;;;7.42;73.93
78064;BME280;67429;51.596;-3.264;2023-02-18T08:12:13;100024.99;;;7.08;74.73
78064;BME280;67429;51.596;-3.264;2023-02-18T08:14:39;100025.93;;;6.88;74.51
78064;BME280;67429;51.596;-3.264;2023-02-18T08:17:04;100023.41;;;7.57;72.74
78064;BME280;67429;51.596;-3.264;2023-02-18T08:19:30;100026.32;;;7.81;72.78
78064;BME280;67429;51.596;-3.264;2023-02-18T08:21:55;100026.60;;;7.58;72.81
78064;BME280;67429;51.596;-3.264;2023-02-18T08:24:21;100027.73;;;7.35;73.48
78064;BME280;67429;51.596;-3.264;2023-02-18T08:26:46;100026.87;;;7.42;74.79
78064;BME280;67429;51.596;-3.264;2023-02-18T08:29:12;100025.54;;;7.56;72.93
78064;BME280;67429;51.596;-3.264;2023-02-18T08:31:37;100032.53;;;7.42;74.05
78064;BME280;67429;51.596;-3.264;2023-02-18T08:34:03;100035.52;;;7.33;74.18
78064;BME280;67429;51.596;-3.264;2023-02-18T08:36:29;100029.71;;;7.74;72.73
78064;BME280;67429;51.596;-3.264;2023-02-18T08:38:54;100038.28;;;7.89;71.06
78064;BME280;67429;51.596;-3.264;2023-02-18T08:41:20;100037.50;;;7.64;73.04
78064;BME280;67429;51.596;-3.264;2023-02-18T08:43:46;100044.28;;;7.40;74.17
78064;BME280;67429;51.596;-3.264;2023-02-18T08:46:11;100038.03;;;7.48;73.52
78064;BME280;67429;51.596;-3.264;2023-02-18T08:48:36;100041.95;;;7.46;73.58
78064;BME280;67429;51.596;-3.264;2023-02-18T08:51:11;100042.33;;;7.54;73.50
78064;BME280;67429;51.596;-3.264;2023-02-18T08:53:27;100044.76;;;7.71;73.54
78064;BME280;67429;51.596;-3.264;2023-02-18T08:55:53;100044.12;;;7.14;74.50
78064;BME280;67429;51.596;-3.264;2023-02-18T08:58:18;100046.35;;;7.05;76.27
78064;BME280;67429;51.596;-3.264;2023-02-18T09:00:45;100049.90;;;7.41;75.68
78064;BME280;67429;51.596;-3.264;2023-02-18T09:03:11;100043.41;;;7.78;73.14
78064;BME280;67429;51.596;-3.264;2023-02-18T09:05:35;100046.45;;;7.67;73.90
78064;BME280;67429;51.596;-3.264;2023-02-18T09:08:00;100053.27;;;6.89;75.95
78064;BME280;67429;51.596;-3.264;2023-02-18T09:10:26;100057.79;;;6.75;77.13
78064;BME280;67429;51.596;-3.264;2023-02-18T09:12:51;100056.15;;;7.10;76.24
78064;BME280;67429;51.596;-3.264;2023-02-18T09:15:17;100052.75;;;7.47;75.41
78064;BME280;67429;51.596;-3.264;2023-02-18T09:17:43;100052.36;;;7.60;75.15
78064;BME280;67429;51.596;-3.264;2023-02-18T09:20:08;100052.62;;;7.22;74.80
78064;BME280;67429;51.596;-3.264;2023-02-18T09:22:33;100053.43;;;7.11;75.95
78064;BME280;67429;51.596;-3.264;2023-02-18T09:24:58;100053.45;;;7.02;76.51
78064;BME280;67429;51.596;-3.264;2023-02-18T09:27:24;100050.36;;;6.90;76.93
78064;BME280;67429;51.596;-3.264;2023-02-18T09:29:49;100053.99;;;7.05;77.02
78064;BME280;67429;51.596;-3.264;2023-02-18T09:32:15;100049.06;;;6.72;77.90
78064;BME280;67429;51.596;-3.264;2023-02-18T09:34:40;100051.09;;;7.03;77.16
78064;BME280;67429;51.596;-3.264;2023-02-18T09:37:06;100046.81;;;7.01;76.97
78064;BME280;67429;51.596;-3.264;2023-02-18T09:39:32;100050.04;;;7.39;75.47
78064;BME280;67429;51.596;-3.264;2023-02-18T09:42:00;100038.84;;;7.07;76.67
78064;BME280;67429;51.596;-3.264;2023-02-18T09:44:26;100038.75;;;7.39;76.64
78064;BME280;67429;51.596;-3.264;2023-02-18T09:46:50;100038.48;;;7.03;77.19
78064;BME280;67429;51.596;-3.264;2023-02-18T09:49:15;100029.02;;;6.97;77.92
78064;BME280;67429;51.596;-3.264;2023-02-18T09:51:38;100026.71;;;7.07;77.54
78064;BME280;67429;51.596;-3.264;2023-02-18T09:54:04;100026.28;;;7.26;77.51
78064;BME280;67429;51.596;-3.264;2023-02-18T09:56:32;100020.86;;;7.23;77.95
78064;BME280;67429;51.596;-3.264;2023-02-18T09:58:57;100019.98;;;7.05;77.37
78064;BME280;67429;51.596;-3.264;2023-02-18T10:01:24;100017.91;;;7.28;77.20
78064;BME280;67429;51.596;-3.264;2023-02-18T10:03:46;100021.19;;;7.32;77.50
78064;BME280;67429;51.596;-3.264;2023-02-18T10:06:17;100024.98;;;7.09;77.84
78064;BME280;67429;51.596;-3.264;2023-02-18T10:08:38;100027.60;;;7.02;78.41
78064;BME280;67429;51.596;-3.264;2023-02-18T10:11:03;100027.45;;;7.12;76.99
78064;BME280;67429;51.596;-3.264;2023-02-18T10:13:31;100029.89;;;7.51;76.80
78064;BME280;67429;51.596;-3.264;2023-02-18T10:15:54;100038.06;;;7.43;77.16
78064;BME280;67429;51.596;-3.264;2023-02-18T10:18:24;100035.18;;;7.18;78.71
78064;BME280;67429;51.596;-3.264;2023-02-18T10:20:44;100036.85;;;7.23;78.28
78064;BME280;67429;51.596;-3.264;2023-02-18T10:23:11;100033.14;;;6.65;79.13
78064;BME280;67429;51.596;-3.264;2023-02-18T10:25:39;100037.32;;;7.44;76.93
78064;BME280;67429;51.596;-3.264;2023-02-18T10:28:02;100033.65;;;7.29;77.29
78064;BME280;67429;51.596;-3.264;2023-02-18T10:30:32;100033.46;;;7.20;77.53
78064;BME280;67429;51.596;-3.264;2023-02-18T10:32:55;100040.72;;;7.28;76.46
78064;BME280;67429;51.596;-3.264;2023-02-18T10:35:23;100034.19;;;7.64;75.23
78064;BME280;67429;51.596;-3.264;2023-02-18T10:37:53;100031.23;;;8.21;74.41
78064;BME280;67429;51.596;-3.264;2023-02-18T10:40:15;100038.70;;;7.24;77.09
78064;BME280;67429;51.596;-3.264;2023-02-18T10:42:42;100045.92;;;7.22;77.68
78064;BME280;67429;51.596;-3.264;2023-02-18T10:45:10;100042.68;;;6.95;77.64
78064;BME280;67429;51.596;-3.264;2023-02-18T10:47:35;100041.51;;;7.27;76.90
78064;BME280;67429;51.596;-3.264;2023-02-18T10:49:56;100049.15;;;7.25;76.87
78064;BME280;67429;51.596;-3.264;2023-02-18T10:52:17;100054.20;;;6.98;77.08
78064;BME280;67429;51.596;-3.264;2023-02-18T10:54:50;100056.80;;;7.48;75.87
78064;BME280;67429;51.596;-3.264;2023-02-18T10:57:14;100056.89;;;7.78;75.22
78064;BME280;67429;51.596;-3.264;2023-02-18T10:59:32;100063.00;;;7.19;75.44
78064;BME280;67429;51.596;-3.264;2023-02-18T11:02:00;100062.53;;;7.13;75.80
78064;BME280;67429;51.596;-3.264;2023-02-18T11:04:27;100064.27;;;7.42;76.22
78064;BME280;67429;51.596;-3.264;2023-02-18T11:06:51;100061.88;;;7.02;76.79
78064;BME280;67429;51.596;-3.264;2023-02-18T11:09:25;100063.01;;;7.22;76.90
78064;BME280;67429;51.596;-3.264;2023-02-18T11:11:40;100064.03;;;7.07;77.98
78064;BME280;67429;51.596;-3.264;2023-02-18T11:14:08;100066.01;;;7.34;76.44
78064;BME280;67429;51.596;-3.264;2023-02-18T11:16:38;100066.91;;;7.50;75.48
78064;BME280;67429;51.596;-3.264;2023-02-18T11:18:57;100069.86;;;7.69;75.49
78064;BME280;67429;51.596;-3.264;2023-02-18T11:21:28;100067.11;;;7.33;76.00
78064;BME280;67429;51.596;-3.264;2023-02-18T11:23:51;100067.60;;;7.54;75.44
78064;BME280;67429;51.596;-3.264;2023-02-18T11:26:15;100064.48;;;7.52;76.42
78064;BME280;67429;51.596;-3.264;2023-02-18T11:28:41;100066.41;;;7.03;77.55
78064;BME280;67429;51.596;-3.264;2023-02-18T11:31:05;100062.33;;;7.27;76.44
78064;BME280;67429;51.596;-3.264;2023-02-18T11:33:33;100064.93;;;7.27;76.09
78064;BME280;67429;51.596;-3.264;2023-02-18T11:35:56;100062.76;;;7.18;76.06
78064;BME280;67429;51.596;-3.264;2023-02-18T11:38:24;100060.44;;;7.27;76.10
78064;BME280;67429;51.596;-3.264;2023-02-18T11:40:53;100058.84;;;7.09;76.41
78064;BME280;67429;51.596;-3.264;2023-02-18T11:43:14;100060.09;;;7.19;76.43
78064;BME280;67429;51.596;-3.264;2023-02-18T11:45:38;100056.24;;;6.96;77.65
78064;BME280;67429;51.596;-3.264;2023-02-18T11:48:12;100049.34;;;7.39;77.18
78064;BME280;67429;51.596;-3.264;2023-02-18T11:50:31;100054.78;;;6.50;78.93
78064;BME280;67429;51.596;-3.264;2023-02-18T11:52:54;100058.79;;;7.30;77.53
78064;BME280;67429;51.596;-3.264;2023-02-18T11:55:22;100058.91;;;7.29;77.40
78064;BME280;67429;51.596;-3.264;2023-02-18T11:57:49;100057.63;;;7.43;76.63
78064;BME280;67429;51.596;-3.264;2023-02-18T12:00:18;100065.55;;;6.61;79.05
78064;BME280;67429;51.596;-3.264;2023-02-18T12:02:37;100046.39;;;6.64;79.67
78064;BME280;67429;51.596;-3.264;2023-02-18T12:05:04;100057.31;;;6.64;80.02
78064;BME280;67429;51.596;-3.264;2023-02-18T12:07:41;100047.83;;;6.82;79.59
78064;BME280;67429;51.596;-3.264;2023-02-18T12:09:56;100051.32;;;6.19;80.79
78064;BME280;67429;51.596;-3.264;2023-02-18T12:12:24;100055.32;;;6.92;79.29
78064;BME280;67429;51.596;-3.264;2023-02-18T12:14:44;100048.00;;;6.75;78.65
78064;BME280;67429;51.596;-3.264;2023-02-18T12:17:22;100051.87;;;6.44;80.24
78064;BME280;67429;51.596;-3.264;2023-02-18T12:19:46;100043.83;;;6.30;80.06
78064;BME280;67429;51.596;-3.264;2023-02-18T12:22:06;100044.84;;;6.48;79.36
78064;BME280;67429;51.596;-3.264;2023-02-18T12:24:40;100041.37;;;6.68;79.58
78064;BME280;67429;51.596;-3.264;2023-02-18T12:27:00;100040.29;;;6.94;78.19
78064;BME280;67429;51.596;-3.264;2023-02-18T12:29:31;100040.14;;;7.26;77.53
78064;BME280;67429;51.596;-3.264;2023-02-18T12:31:54;100034.53;;;6.89;78.26
78064;BME280;67429;51.596;-3.264;2023-02-18T12:34:21;100027.92;;;6.60;79.31
78064;BME280;67429;51.596;-3.264;2023-02-18T12:36:45;100023.35;;;6.37;79.71
78064;BME280;67429;51.596;-3.264;2023-02-18T12:39:08;100020.36;;;6.87;79.52
78064;BME280;67429;51.596;-3.264;2023-02-18T12:41:36;100014.59;;;6.77;79.11
78064;BME280;67429;51.596;-3.264;2023-02-18T12:43:59;100010.08;;;6.96;79.47
78064;BME280;67429;51.596;-3.264;2023-02-18T12:46:26;100000.20;;;6.80;79.10
78064;BME280;67429;51.596;-3.264;2023-02-18T12:48:54;100006.38;;;6.61;79.49
78064;BME280;67429;51.596;-3.264;2023-02-18T12:51:22;100005.56;;;6.51;79.60